Cloutierville, Louisiana
Current Conditions -  °F | °C
As of 2:15 PM on Monday 24 Nov 2014 (Local Time) from KIER Reporting Station
Clear Clear  
Wind Chill: 63°   Ceiling: Unl
Heat Index: 63°   Visibility: 10mi
Dew Point: 33°   Wind: 14mph
Humidity: 32%   Direction: 320°NW
Pressure: 30"   Gusts: NA
Location:  31.54°N, 92.92°W
Report Text: KIER 242015Z AUTO 32012KT 10SM CLR 17/00 A3000 RMK AO2 T01710004
Loading
Personal Weather Stations






























Interactive Weather Map New forecast layout! Learn more

10-Day Weather Forecast

Advertisements
Track Severe Weather on mobile